sensor_id;sensor_type;location;lat;lon;timestamp;temperature;humidity
18043;DHT22;9146;48.074;11.968;2024-02-26T00:00:18;0.70;99.90
18043;DHT22;9146;48.074;11.968;2024-02-26T00:02:46;0.70;99.90
18043;DHT22;9146;48.074;11.968;2024-02-26T00:05:14;0.70;99.90
18043;DHT22;9146;48.074;11.968;2024-02-26T00:07:41;0.70;99.90
18043;DHT22;9146;48.074;11.968;2024-02-26T00:10:09;0.60;99.90
18043;DHT22;9146;48.074;11.968;2024-02-26T00:12:36;0.60;99.90
18043;DHT22;9146;48.074;11.968;2024-02-26T00:15:05;0.60;99.90
18043;DHT22;9146;48.074;11.968;2024-02-26T00:17:32;0.60;99.90
18043;DHT22;9146;48.074;11.968;2024-02-26T00:19:59;0.60;99.90
18043;DHT22;9146;48.074;11.968;2024-02-26T00:22:28;0.60;99.90
18043;DHT22;9146;48.074;11.968;2024-02-26T00:24:55;0.60;99.90
18043;DHT22;9146;48.074;11.968;2024-02-26T00:27:22;0.60;99.90
18043;DHT22;9146;48.074;11.968;2024-02-26T00:29:48;0.60;99.90
18043;DHT22;9146;48.074;11.968;2024-02-26T00:32:15;0.60;99.90
18043;DHT22;9146;48.074;11.968;2024-02-26T00:34:45;0.60;99.90
18043;DHT22;9146;48.074;11.968;2024-02-26T00:37:16;0.60;99.90
18043;DHT22;9146;48.074;11.968;2024-02-26T00:39:44;0.50;99.90
18043;DHT22;9146;48.074;11.968;2024-02-26T00:42:12;0.50;99.90
18043;DHT22;9146;48.074;11.968;2024-02-26T00:44:39;0.50;99.90
18043;DHT22;9146;48.074;11.968;2024-02-26T00:47:06;0.50;99.90
18043;DHT22;9146;48.074;11.968;2024-02-26T00:49:33;0.50;99.90
18043;DHT22;9146;48.074;11.968;2024-02-26T00:52:00;0.50;99.90
18043;DHT22;9146;48.074;11.968;2024-02-26T00:54:26;0.50;99.90
18043;DHT22;9146;48.074;11.968;2024-02-26T00:56:55;0.50;99.90
18043;DHT22;9146;48.074;11.968;2024-02-26T00:59:22;0.40;99.90
18043;DHT22;9146;48.074;11.968;2024-02-26T01:01:49;0.40;99.90
18043;DHT22;9146;48.074;11.968;2024-02-26T01:04:16;0.40;99.90
18043;DHT22;9146;48.074;11.968;2024-02-26T01:06:43;0.50;99.90
18043;DHT22;9146;48.074;11.968;2024-02-26T01:09:09;0.50;99.90
18043;DHT22;9146;48.074;11.968;2024-02-26T01:11:37;0.40;99.90
18043;DHT22;9146;48.074;11.968;2024-02-26T01:14:05;0.40;99.90
18043;DHT22;9146;48.074;11.968;2024-02-26T01:16:32;0.40;99.90
18043;DHT22;9146;48.074;11.968;2024-02-26T01:19:01;0.40;99.90
18043;DHT22;9146;48.074;11.968;2024-02-26T01:21:28;0.30;99.90
18043;DHT22;9146;48.074;11.968;2024-02-26T01:23:55;0.30;99.90
18043;DHT22;9146;48.074;11.968;2024-02-26T01:26:23;0.30;99.90
18043;DHT22;9146;48.074;11.968;2024-02-26T01:28:49;0.30;99.90
18043;DHT22;9146;48.074;11.968;2024-02-26T01:31:18;0.30;99.90
18043;DHT22;9146;48.074;11.968;2024-02-26T01:33:45;0.30;99.90
18043;DHT22;9146;48.074;11.968;2024-02-26T01:36:12;0.20;99.90
18043;DHT22;9146;48.074;11.968;2024-02-26T01:38:39;0.20;99.90
18043;DHT22;9146;48.074;11.968;2024-02-26T01:41:06;0.20;99.90
18043;DHT22;9146;48.074;11.968;2024-02-26T01:43:33;0.20;99.90
18043;DHT22;9146;48.074;11.968;2024-02-26T01:46:01;0.20;99.90
18043;DHT22;9146;48.074;11.968;2024-02-26T01:48:30;0.10;99.90
18043;DHT22;9146;48.074;11.968;2024-02-26T01:50:57;0.20;99.90
18043;DHT22;9146;48.074;11.968;2024-02-26T01:53:24;0.20;99.90
18043;DHT22;9146;48.074;11.968;2024-02-26T01:55:52;0.10;99.90
18043;DHT22;9146;48.074;11.968;2024-02-26T01:58:20;0.10;99.90
18043;DHT22;9146;48.074;11.968;2024-02-26T02:00:47;0.10;99.90
18043;DHT22;9146;48.074;11.968;2024-02-26T02:03:14;0.10;99.90
18043;DHT22;9146;48.074;11.968;2024-02-26T02:05:42;0.10;99.90
18043;DHT22;9146;48.074;11.968;2024-02-26T02:08:10;0.10;99.90
18043;DHT22;9146;48.074;11.968;2024-02-26T02:10:38;0.00;99.90
18043;DHT22;9146;48.074;11.968;2024-02-26T02:13:06;0.00;99.90
18043;DHT22;9146;48.074;11.968;2024-02-26T02:15:32;0.10;99.90
18043;DHT22;9146;48.074;11.968;2024-02-26T02:17:59;0.10;99.90
18043;DHT22;9146;48.074;11.968;2024-02-26T02:20:32;0.10;99.90
18043;DHT22;9146;48.074;11.968;2024-02-26T02:22:59;0.10;99.90
18043;DHT22;9146;48.074;11.968;2024-02-26T02:25:26;0.10;99.90
18043;DHT22;9146;48.074;11.968;2024-02-26T02:27:53;0.00;99.90
18043;DHT22;9146;48.074;11.968;2024-02-26T02:30:21;0.00;99.90
18043;DHT22;9146;48.074;11.968;2024-02-26T02:32:49;0.00;99.90
18043;DHT22;9146;48.074;11.968;2024-02-26T02:35:16;0.10;99.90
18043;DHT22;9146;48.074;11.968;2024-02-26T02:37:44;0.00;99.90
18043;DHT22;9146;48.074;11.968;2024-02-26T02:40:11;0.00;99.90
18043;DHT22;9146;48.074;11.968;2024-02-26T02:42:38;0.00;99.90
18043;DHT22;9146;48.074;11.968;2024-02-26T02:45:06;0.00;99.90
18043;DHT22;9146;48.074;11.968;2024-02-26T02:47:36;0.10;99.90
18043;DHT22;9146;48.074;11.968;2024-02-26T02:50:03;0.00;99.90
18043;DHT22;9146;48.074;11.968;2024-02-26T02:52:30;0.00;99.90
18043;DHT22;9146;48.074;11.968;2024-02-26T02:54:59;0.10;99.90
18043;DHT22;9146;48.074;11.968;2024-02-26T02:57:26;0.10;99.90
18043;DHT22;9146;48.074;11.968;2024-02-26T02:59:53;0.10;99.90
18043;DHT22;9146;48.074;11.968;2024-02-26T03:02:20;0.10;99.90
18043;DHT22;9146;48.074;11.968;2024-02-26T03:04:49;0.10;99.90
18043;DHT22;9146;48.074;11.968;2024-02-26T03:07:16;0.10;99.90
18043;DHT22;9146;48.074;11.968;2024-02-26T03:09:46;0.10;99.90
18043;DHT22;9146;48.074;11.968;2024-02-26T03:12:14;0.10;99.90
18043;DHT22;9146;48.074;11.968;2024-02-26T03:14:41;0.10;99.90
18043;DHT22;9146;48.074;11.968;2024-02-26T03:17:08;0.10;99.90
18043;DHT22;9146;48.074;11.968;2024-02-26T03:19:35;0.10;99.90
18043;DHT22;9146;48.074;11.968;2024-02-26T03:22:03;0.10;99.90
18043;DHT22;9146;48.074;11.968;2024-02-26T03:24:30;0.10;99.90
18043;DHT22;9146;48.074;11.968;2024-02-26T03:26:57;0.10;99.90
18043;DHT22;9146;48.074;11.968;2024-02-26T03:29:25;0.10;99.90
18043;DHT22;9146;48.074;11.968;2024-02-26T03:31:52;0.10;99.90
18043;DHT22;9146;48.074;11.968;2024-02-26T03:34:19;0.10;99.90
18043;DHT22;9146;48.074;11.968;2024-02-26T03:36:46;0.10;99.90
18043;DHT22;9146;48.074;11.968;2024-02-26T03:39:13;0.10;99.90
18043;DHT22;9146;48.074;11.968;2024-02-26T03:41:40;0.20;99.90
18043;DHT22;9146;48.074;11.968;2024-02-26T03:44:07;0.20;99.90
18043;DHT22;9146;48.074;11.968;2024-02-26T03:46:35;0.20;99.90
18043;DHT22;9146;48.074;11.968;2024-02-26T03:49:02;0.20;99.90
18043;DHT22;9146;48.074;11.968;2024-02-26T03:51:29;0.20;99.90
18043;DHT22;9146;48.074;11.968;2024-02-26T03:53:57;0.30;99.90
18043;DHT22;9146;48.074;11.968;2024-02-26T03:56:25;0.30;99.90
18043;DHT22;9146;48.074;11.968;2024-02-26T03:58:52;0.30;99.90
18043;DHT22;9146;48.074;11.968;2024-02-26T04:01:19;0.20;99.90
18043;DHT22;9146;48.074;11.968;2024-02-26T04:03:48;0.20;99.90
18043;DHT22;9146;48.074;11.968;2024-02-26T04:06:17;0.20;99.90
18043;DHT22;9146;48.074;11.968;2024-02-26T04:08:46;0.20;99.90
18043;DHT22;9146;48.074;11.968;2024-02-26T04:11:13;0.20;99.90
18043;DHT22;9146;48.074;11.968;2024-02-26T04:13:43;0.20;99.90
18043;DHT22;9146;48.074;11.968;2024-02-26T04:16:11;0.10;99.90
18043;DHT22;9146;48.074;11.968;2024-02-26T04:18:38;0.10;99.90
18043;DHT22;9146;48.074;11.968;2024-02-26T04:21:06;0.10;99.90
18043;DHT22;9146;48.074;11.968;2024-02-26T04:23:33;0.10;99.90
18043;DHT22;9146;48.074;11.968;2024-02-26T04:26:00;0.00;99.90
18043;DHT22;9146;48.074;11.968;2024-02-26T04:28:27;0.00;99.90
18043;DHT22;9146;48.074;11.968;2024-02-26T04:30:55;0.00;99.90
18043;DHT22;9146;48.074;11.968;2024-02-26T04:33:22;0.10;99.90
18043;DHT22;9146;48.074;11.968;2024-02-26T04:35:49;0.00;99.90
18043;DHT22;9146;48.074;11.968;2024-02-26T04:38:17;0.00;99.90
18043;DHT22;9146;48.074;11.968;2024-02-26T04:40:44;0.00;99.90
18043;DHT22;9146;48.074;11.968;2024-02-26T04:43:12;0.10;99.90
18043;DHT22;9146;48.074;11.968;2024-02-26T04:45:39;0.00;99.90
18043;DHT22;9146;48.074;11.968;2024-02-26T04:48:07;0.10;99.90
18043;DHT22;9146;48.074;11.968;2024-02-26T04:50:34;0.10;99.90
18043;DHT22;9146;48.074;11.968;2024-02-26T04:53:00;0.00;99.90
18043;DHT22;9146;48.074;11.968;2024-02-26T04:55:30;0.00;99.90
18043;DHT22;9146;48.074;11.968;2024-02-26T04:57:57;0.00;99.90
18043;DHT22;9146;48.074;11.968;2024-02-26T05:00:24;0.00;99.90
18043;DHT22;9146;48.074;11.968;2024-02-26T05:02:51;-0.10;99.90
18043;DHT22;9146;48.074;11.968;2024-02-26T05:05:18;-0.10;99.90
18043;DHT22;9146;48.074;11.968;2024-02-26T05:07:45;0.00;99.90
18043;DHT22;9146;48.074;11.968;2024-02-26T05:10:12;0.00;99.90
18043;DHT22;9146;48.074;11.968;2024-02-26T05:12:40;0.00;99.90
18043;DHT22;9146;48.074;11.968;2024-02-26T05:15:09;0.00;99.90
18043;DHT22;9146;48.074;11.968;2024-02-26T05:17:36;0.00;99.90
18043;DHT22;9146;48.074;11.968;2024-02-26T05:20:03;0.00;99.90
18043;DHT22;9146;48.074;11.968;2024-02-26T05:22:33;0.00;99.90
18043;DHT22;9146;48.074;11.968;2024-02-26T05:25:00;0.00;99.90
18043;DHT22;9146;48.074;11.968;2024-02-26T05:27:27;0.10;99.90
18043;DHT22;9146;48.074;11.968;2024-02-26T05:29:55;0.10;99.90
18043;DHT22;9146;48.074;11.968;2024-02-26T05:32:22;0.10;99.90
18043;DHT22;9146;48.074;11.968;2024-02-26T05:34:49;0.10;99.90
18043;DHT22;9146;48.074;11.968;2024-02-26T05:37:16;0.10;99.90
18043;DHT22;9146;48.074;11.968;2024-02-26T05:39:43;0.10;99.90
18043;DHT22;9146;48.074;11.968;2024-02-26T05:42:10;0.10;99.90
18043;DHT22;9146;48.074;11.968;2024-02-26T05:44:37;0.10;99.90
18043;DHT22;9146;48.074;11.968;2024-02-26T05:47:05;0.10;99.90
18043;DHT22;9146;48.074;11.968;2024-02-26T05:49:32;0.10;99.90
18043;DHT22;9146;48.074;11.968;2024-02-26T05:52:00;0.10;99.90
18043;DHT22;9146;48.074;11.968;2024-02-26T05:54:27;0.10;99.90
18043;DHT22;9146;48.074;11.968;2024-02-26T05:56:54;0.10;99.90
18043;DHT22;9146;48.074;11.968;2024-02-26T05:59:21;0.10;99.90
18043;DHT22;9146;48.074;11.968;2024-02-26T06:01:48;0.00;99.90
18043;DHT22;9146;48.074;11.968;2024-02-26T06:04:16;0.10;99.90
18043;DHT22;9146;48.074;11.968;2024-02-26T06:06:44;0.10;99.90
18043;DHT22;9146;48.074;11.968;2024-02-26T06:09:12;0.10;99.90
18043;DHT22;9146;48.074;11.968;2024-02-26T06:11:39;0.10;99.90
18043;DHT22;9146;48.074;11.968;2024-02-26T06:14:06;0.10;99.90
18043;DHT22;9146;48.074;11.968;2024-02-26T06:16:33;0.10;99.90
18043;DHT22;9146;48.074;11.968;2024-02-26T06:19:00;0.10;99.90
18043;DHT22;9146;48.074;11.968;2024-02-26T06:21:28;0.10;99.90
18043;DHT22;9146;48.074;11.968;2024-02-26T06:23:55;0.20;99.90
18043;DHT22;9146;48.074;11.968;2024-02-26T06:26:22;0.30;99.90
18043;DHT22;9146;48.074;11.968;2024-02-26T06:28:49;0.30;99.90
18043;DHT22;9146;48.074;11.968;2024-02-26T06:31:17;0.40;99.90
18043;DHT22;9146;48.074;11.968;2024-02-26T06:33:44;0.50;99.90
18043;DHT22;9146;48.074;11.968;2024-02-26T06:36:11;0.50;99.90
18043;DHT22;9146;48.074;11.968;2024-02-26T06:38:40;0.60;99.90
18043;DHT22;9146;48.074;11.968;2024-02-26T06:41:07;0.70;99.90
18043;DHT22;9146;48.074;11.968;2024-02-26T06:43:37;0.80;99.90
18043;DHT22;9146;48.074;11.968;2024-02-26T06:46:04;1.00;99.90
18043;DHT22;9146;48.074;11.968;2024-02-26T06:48:32;1.10;99.90
18043;DHT22;9146;48.074;11.968;2024-02-26T06:50:59;1.30;99.90
18043;DHT22;9146;48.074;11.968;2024-02-26T06:53:26;1.40;99.90
18043;DHT22;9146;48.074;11.968;2024-02-26T06:55:54;1.60;99.90
18043;DHT22;9146;48.074;11.968;2024-02-26T06:58:21;1.70;99.90
18043;DHT22;9146;48.074;11.968;2024-02-26T07:00:48;1.90;99.90
18043;DHT22;9146;48.074;11.968;2024-02-26T07:03:15;2.00;99.90
18043;DHT22;9146;48.074;11.968;2024-02-26T07:05:42;2.10;99.90
18043;DHT22;9146;48.074;11.968;2024-02-26T07:08:11;2.20;99.90
18043;DHT22;9146;48.074;11.968;2024-02-26T07:10:38;2.30;99.90
18043;DHT22;9146;48.074;11.968;2024-02-26T07:13:06;2.40;99.90
18043;DHT22;9146;48.074;11.968;2024-02-26T07:15:33;2.50;99.90
18043;DHT22;9146;48.074;11.968;2024-02-26T07:18:00;2.60;99.90
18043;DHT22;9146;48.074;11.968;2024-02-26T07:20:28;2.70;99.90
18043;DHT22;9146;48.074;11.968;2024-02-26T07:22:56;2.70;99.90
18043;DHT22;9146;48.074;11.968;2024-02-26T07:25:23;2.80;99.90
18043;DHT22;9146;48.074;11.968;2024-02-26T07:27:50;2.90;99.90
18043;DHT22;9146;48.074;11.968;2024-02-26T07:30:18;2.90;99.90
18043;DHT22;9146;48.074;11.968;2024-02-26T07:32:45;3.00;99.90
18043;DHT22;9146;48.074;11.968;2024-02-26T07:35:12;3.10;99.90
18043;DHT22;9146;48.074;11.968;2024-02-26T07:37:39;3.20;99.90
18043;DHT22;9146;48.074;11.968;2024-02-26T07:40:07;3.30;99.90
18043;DHT22;9146;48.074;11.968;2024-02-26T07:42:35;3.40;99.90
18043;DHT22;9146;48.074;11.968;2024-02-26T07:45:02;3.50;99.90
18043;DHT22;9146;48.074;11.968;2024-02-26T07:47:31;3.60;99.90
18043;DHT22;9146;48.074;11.968;2024-02-26T07:50:00;3.80;99.90
18043;DHT22;9146;48.074;11.968;2024-02-26T07:52:27;3.90;99.90
18043;DHT22;9146;48.074;11.968;2024-02-26T07:54:55;4.10;99.90
18043;DHT22;9146;48.074;11.968;2024-02-26T07:57:22;4.30;99.90
18043;DHT22;9146;48.074;11.968;2024-02-26T07:59:49;4.50;99.90
18043;DHT22;9146;48.074;11.968;2024-02-26T08:02:16;4.60;99.90
18043;DHT22;9146;48.074;11.968;2024-02-26T08:04:45;4.80;99.90
18043;DHT22;9146;48.074;11.968;2024-02-26T08:07:12;4.90;99.90
18043;DHT22;9146;48.074;11.968;2024-02-26T08:09:39;5.00;99.90
18043;DHT22;9146;48.074;11.968;2024-02-26T08:12:06;5.10;99.90
18043;DHT22;9146;48.074;11.968;2024-02-26T08:14:33;5.10;99.90
18043;DHT22;9146;48.074;11.968;2024-02-26T08:17:00;5.30;99.90
18043;DHT22;9146;48.074;11.968;2024-02-26T08:19:27;5.40;99.90
18043;DHT22;9146;48.074;11.968;2024-02-26T08:21:56;5.60;99.90
18043;DHT22;9146;48.074;11.968;2024-02-26T08:24:23;5.70;99.90
18043;DHT22;9146;48.074;11.968;2024-02-26T08:26:50;6.00;99.90
18043;DHT22;9146;48.074;11.968;2024-02-26T08:29:17;6.10;99.90
18043;DHT22;9146;48.074;11.968;2024-02-26T08:31:45;6.30;99.90
18043;DHT22;9146;48.074;11.968;2024-02-26T08:34:12;6.50;99.90
18043;DHT22;9146;48.074;11.968;2024-02-26T08:36:39;6.60;99.90
18043;DHT22;9146;48.074;11.968;2024-02-26T08:39:07;6.80;99.90
18043;DHT22;9146;48.074;11.968;2024-02-26T08:41:35;6.90;99.90
18043;DHT22;9146;48.074;11.968;2024-02-26T08:44:02;7.10;99.90
18043;DHT22;9146;48.074;11.968;2024-02-26T08:46:29;7.20;99.90
18043;DHT22;9146;48.074;11.968;2024-02-26T08:48:57;7.40;99.90
18043;DHT22;9146;48.074;11.968;2024-02-26T08:51:24;7.50;99.90
18043;DHT22;9146;48.074;11.968;2024-02-26T08:53:51;7.60;99.90
18043;DHT22;9146;48.074;11.968;2024-02-26T08:56:21;7.60;99.90
18043;DHT22;9146;48.074;11.968;2024-02-26T08:58:48;7.70;99.90
18043;DHT22;9146;48.074;11.968;2024-02-26T09:01:17;7.80;99.90
18043;DHT22;9146;48.074;11.968;2024-02-26T09:03:44;7.90;99.90
18043;DHT22;9146;48.074;11.968;2024-02-26T09:06:11;7.90;99.90
18043;DHT22;9146;48.074;11.968;2024-02-26T09:08:38;8.00;99.90
18043;DHT22;9146;48.074;11.968;2024-02-26T09:11:05;8.00;99.90
18043;DHT22;9146;48.074;11.968;2024-02-26T09:13:33;8.00;99.90
18043;DHT22;9146;48.074;11.968;2024-02-26T09:16:00;8.10;99.90
18043;DHT22;9146;48.074;11.968;2024-02-26T09:18:28;8.20;99.90
18043;DHT22;9146;48.074;11.968;2024-02-26T09:20:55;8.20;99.90
18043;DHT22;9146;48.074;11.968;2024-02-26T09:23:22;8.30;99.90
18043;DHT22;9146;48.074;11.968;2024-02-26T09:25:49;8.40;99.90
18043;DHT22;9146;48.074;11.968;2024-02-26T09:28:16;8.50;99.90
18043;DHT22;9146;48.074;11.968;2024-02-26T09:30:44;8.50;99.90
18043;DHT22;9146;48.074;11.968;2024-02-26T09:33:13;8.70;99.90
18043;DHT22;9146;48.074;11.968;2024-02-26T09:35:40;8.70;99.90
18043;DHT22;9146;48.074;11.968;2024-02-26T09:38:06;8.80;99.90
18043;DHT22;9146;48.074;11.968;2024-02-26T09:40:33;8.80;99.90
18043;DHT22;9146;48.074;11.968;2024-02-26T09:43:00;8.80;99.90
18043;DHT22;9146;48.074;11.968;2024-02-26T09:45:28;8.80;99.90
18043;DHT22;9146;48.074;11.968;2024-02-26T09:47:58;8.80;99.90
18043;DHT22;9146;48.074;11.968;2024-02-26T09:50:25;8.90;99.90
18043;DHT22;9146;48.074;11.968;2024-02-26T09:52:52;8.90;99.90
18043;DHT22;9146;48.074;11.968;2024-02-26T09:55:20;9.00;99.90
18043;DHT22;9146;48.074;11.968;2024-02-26T09:57:48;9.10;99.90
18043;DHT22;9146;48.074;11.968;2024-02-26T10:00:18;9.20;99.90
18043;DHT22;9146;48.074;11.968;2024-02-26T10:02:46;9.40;99.90
18043;DHT22;9146;48.074;11.968;2024-02-26T10:05:17;9.50;99.90
18043;DHT22;9146;48.074;11.968;2024-02-26T10:07:45;9.60;99.90
18043;DHT22;9146;48.074;11.968;2024-02-26T10:10:13;9.70;99.90
18043;DHT22;9146;48.074;11.968;2024-02-26T10:12:40;9.70;99.90
18043;DHT22;9146;48.074;11.968;2024-02-26T10:15:08;9.70;99.90
18043;DHT22;9146;48.074;11.968;2024-02-26T10:17:35;9.60;99.90
18043;DHT22;9146;48.074;11.968;2024-02-26T10:20:15;9.60;99.90
18043;DHT22;9146;48.074;11.968;2024-02-26T10:22:43;9.60;99.90
18043;DHT22;9146;48.074;11.968;2024-02-26T10:25:10;9.50;99.90
18043;DHT22;9146;48.074;11.968;2024-02-26T10:27:37;9.50;99.90
18043;DHT22;9146;48.074;11.968;2024-02-26T10:30:05;9.50;99.90
18043;DHT22;9146;48.074;11.968;2024-02-26T10:32:42;9.50;99.90
18043;DHT22;9146;48.074;11.968;2024-02-26T10:35:09;9.50;99.90
18043;DHT22;9146;48.074;11.968;2024-02-26T10:37:38;9.60;99.90
18043;DHT22;9146;48.074;11.968;2024-02-26T10:40:06;9.70;99.90
18043;DHT22;9146;48.074;11.968;2024-02-26T10:42:36;9.80;99.90
18043;DHT22;9146;48.074;11.968;2024-02-26T10:45:04;9.80;99.90
18043;DHT22;9146;48.074;11.968;2024-02-26T10:47:31;9.80;99.90
18043;DHT22;9146;48.074;11.968;2024-02-26T10:49:59;9.90;99.90
18043;DHT22;9146;48.074;11.968;2024-02-26T10:52:27;9.90;99.90
18043;DHT22;9146;48.074;11.968;2024-02-26T10:55:00;9.90;99.90
18043;DHT22;9146;48.074;11.968;2024-02-26T10:57:32;9.90;99.90
18043;DHT22;9146;48.074;11.968;2024-02-26T11:00:00;9.90;99.90
18043;DHT22;9146;48.074;11.968;2024-02-26T11:02:31;10.00;99.90
18043;DHT22;9146;48.074;11.968;2024-02-26T11:05:01;10.10;99.90
18043;DHT22;9146;48.074;11.968;2024-02-26T11:07:30;10.10;99.90
18043;DHT22;9146;48.074;11.968;2024-02-26T11:09:59;10.20;99.90
18043;DHT22;9146;48.074;11.968;2024-02-26T11:12:28;10.30;99.90
18043;DHT22;9146;48.074;11.968;2024-02-26T11:14:56;10.50;99.90
18043;DHT22;9146;48.074;11.968;2024-02-26T11:17:26;10.60;99.90
18043;DHT22;9146;48.074;11.968;2024-02-26T11:19:55;10.60;99.90
18043;DHT22;9146;48.074;11.968;2024-02-26T11:22:23;10.70;99.90
18043;DHT22;9146;48.074;11.968;2024-02-26T11:24:52;10.80;99.90
18043;DHT22;9146;48.074;11.968;2024-02-26T11:27:24;10.80;99.90
18043;DHT22;9146;48.074;11.968;2024-02-26T11:29:56;10.80;99.90
18043;DHT22;9146;48.074;11.968;2024-02-26T11:32:26;10.90;99.90
18043;DHT22;9146;48.074;11.968;2024-02-26T11:34:54;10.90;99.90
18043;DHT22;9146;48.074;11.968;2024-02-26T11:37:21;11.00;99.90
18043;DHT22;9146;48.074;11.968;2024-02-26T11:39:48;11.00;99.90
18043;DHT22;9146;48.074;11.968;2024-02-26T11:42:18;11.00;99.90
18043;DHT22;9146;48.074;11.968;2024-02-26T11:44:50;11.10;99.90
18043;DHT22;9146;48.074;11.968;2024-02-26T11:47:19;11.30;99.90
18043;DHT22;9146;48.074;11.968;2024-02-26T11:49:46;11.30;99.90
18043;DHT22;9146;48.074;11.968;2024-02-26T11:52:14;11.30;99.90
18043;DHT22;9146;48.074;11.968;2024-02-26T11:54:45;11.30;99.90
18043;DHT22;9146;48.074;11.968;2024-02-26T11:57:23;11.40;99.90
18043;DHT22;9146;48.074;11.968;2024-02-26T11:59:51;11.40;99.90
18043;DHT22;9146;48.074;11.968;2024-02-26T12:02:45;11.40;99.90
18043;DHT22;9146;48.074;11.968;2024-02-26T12:05:14;11.50;99.90
18043;DHT22;9146;48.074;11.968;2024-02-26T12:07:44;11.50;99.90
18043;DHT22;9146;48.074;11.968;2024-02-26T12:10:25;11.50;99.90
18043;DHT22;9146;48.074;11.968;2024-02-26T12:12:55;11.50;99.90
18043;DHT22;9146;48.074;11.968;2024-02-26T12:15:30;11.50;99.90
18043;DHT22;9146;48.074;11.968;2024-02-26T12:17:58;11.40;99.90
18043;DHT22;9146;48.074;11.968;2024-02-26T12:20:26;11.40;99.90
18043;DHT22;9146;48.074;11.968;2024-02-26T12:22:54;11.50;99.90
18043;DHT22;9146;48.074;11.968;2024-02-26T12:25:25;11.50;99.90
18043;DHT22;9146;48.074;11.968;2024-02-26T12:27:52;11.50;98.30
18043;DHT22;9146;48.074;11.968;2024-02-26T12:30:19;11.50;98.40
18043;DHT22;9146;48.074;11.968;2024-02-26T12:32:48;11.50;98.90
18043;DHT22;9146;48.074;11.968;2024-02-26T12:35:17;11.40;99.30
18043;DHT22;9146;48.074;11.968;2024-02-26T12:37:44;11.30;99.90
18043;DHT22;9146;48.074;11.968;2024-02-26T12:40:11;11.30;99.90
18043;DHT22;9146;48.074;11.968;2024-02-26T12:42:39;11.20;99.90
18043;DHT22;9146;48.074;11.968;2024-02-26T12:45:07;11.30;99.90
18043;DHT22;9146;48.074;11.968;2024-02-26T12:47:36;11.30;99.90
18043;DHT22;9146;48.074;11.968;2024-02-26T12:50:06;11.30;99.90
18043;DHT22;9146;48.074;11.968;2024-02-26T12:52:34;11.30;99.90
18043;DHT22;9146;48.074;11.968;2024-02-26T12:55:02;11.30;99.90
18043;DHT22;9146;48.074;11.968;2024-02-26T12:57:30;11.30;99.90
18043;DHT22;9146;48.074;11.968;2024-02-26T12:59:58;11.30;99.90
18043;DHT22;9146;48.074;11.968;2024-02-26T13:02:26;11.30;99.90
18043;DHT22;9146;48.074;11.968;2024-02-26T13:04:54;11.20;99.90
18043;DHT22;9146;48.074;11.968;2024-02-26T13:07:24;11.20;99.90
18043;DHT22;9146;48.074;11.968;2024-02-26T13:09:51;11.30;99.90
18043;DHT22;9146;48.074;11.968;2024-02-26T13:12:18;11.40;99.90
18043;DHT22;9146;48.074;11.968;2024-02-26T13:14:45;11.50;99.90
18043;DHT22;9146;48.074;11.968;2024-02-26T13:17:13;11.60;99.90
18043;DHT22;9146;48.074;11.968;2024-02-26T13:19:49;11.70;99.90
18043;DHT22;9146;48.074;11.968;2024-02-26T13:22:20;11.70;99.90
18043;DHT22;9146;48.074;11.968;2024-02-26T13:24:55;11.60;99.90
18043;DHT22;9146;48.074;11.968;2024-02-26T13:27:22;11.60;99.90
18043;DHT22;9146;48.074;11.968;2024-02-26T13:30:02;11.50;99.90
18043;DHT22;9146;48.074;11.968;2024-02-26T13:32:32;11.40;99.90
18043;DHT22;9146;48.074;11.968;2024-02-26T13:35:07;11.30;99.90
18043;DHT22;9146;48.074;11.968;2024-02-26T13:37:34;11.20;99.90
18043;DHT22;9146;48.074;11.968;2024-02-26T13:40:06;11.20;99.90
18043;DHT22;9146;48.074;11.968;2024-02-26T13:42:34;11.10;99.90
18043;DHT22;9146;48.074;11.968;2024-02-26T13:45:01;11.00;99.90
18043;DHT22;9146;48.074;11.968;2024-02-26T13:47:28;11.00;99.90
18043;DHT22;9146;48.074;11.968;2024-02-26T13:49:55;10.90;99.90
18043;DHT22;9146;48.074;11.968;2024-02-26T13:52:23;10.90;99.90
18043;DHT22;9146;48.074;11.968;2024-02-26T13:54:51;10.90;99.90
18043;DHT22;9146;48.074;11.968;2024-02-26T13:57:20;10.90;99.90
18043;DHT22;9146;48.074;11.968;2024-02-26T13:59:47;11.00;99.90
18043;DHT22;9146;48.074;11.968;2024-02-26T14:02:15;11.00;99.90
18043;DHT22;9146;48.074;11.968;2024-02-26T14:04:42;11.10;99.90
18043;DHT22;9146;48.074;11.968;2024-02-26T14:07:11;11.10;99.90
18043;DHT22;9146;48.074;11.968;2024-02-26T14:09:38;11.10;99.90
18043;DHT22;9146;48.074;11.968;2024-02-26T14:12:06;11.20;99.90
18043;DHT22;9146;48.074;11.968;2024-02-26T14:14:34;11.20;99.90
18043;DHT22;9146;48.074;11.968;2024-02-26T14:17:04;11.30;99.90
18043;DHT22;9146;48.074;11.968;2024-02-26T14:19:31;11.40;99.90
18043;DHT22;9146;48.074;11.968;2024-02-26T14:21:58;11.40;99.90
18043;DHT22;9146;48.074;11.968;2024-02-26T14:24:25;11.50;99.90
18043;DHT22;9146;48.074;11.968;2024-02-26T14:26:52;11.60;99.90
18043;DHT22;9146;48.074;11.968;2024-02-26T14:29:19;11.60;99.90
18043;DHT22;9146;48.074;11.968;2024-02-26T14:31:48;11.70;99.90
18043;DHT22;9146;48.074;11.968;2024-02-26T14:34:15;11.70;99.90
18043;DHT22;9146;48.074;11.968;2024-02-26T14:36:44;11.70;99.90
18043;DHT22;9146;48.074;11.968;2024-02-26T14:39:12;11.70;99.90
18043;DHT22;9146;48.074;11.968;2024-02-26T14:41:39;11.60;99.90
18043;DHT22;9146;48.074;11.968;2024-02-26T14:44:06;11.60;99.90
18043;DHT22;9146;48.074;11.968;2024-02-26T14:46:33;11.50;99.90
18043;DHT22;9146;48.074;11.968;2024-02-26T14:49:02;11.40;99.90
18043;DHT22;9146;48.074;11.968;2024-02-26T14:51:29;11.40;99.90
18043;DHT22;9146;48.074;11.968;2024-02-26T14:53:56;11.40;99.90
18043;DHT22;9146;48.074;11.968;2024-02-26T14:56:24;11.30;99.90
18043;DHT22;9146;48.074;11.968;2024-02-26T14:58:51;11.20;99.90
18043;DHT22;9146;48.074;11.968;2024-02-26T15:01:18;11.20;99.90
18043;DHT22;9146;48.074;11.968;2024-02-26T15:03:45;11.10;99.90
18043;DHT22;9146;48.074;11.968;2024-02-26T15:06:14;11.00;99.90
18043;DHT22;9146;48.074;11.968;2024-02-26T15:08:41;11.00;99.90
18043;DHT22;9146;48.074;11.968;2024-02-26T15:11:08;10.90;99.90
18043;DHT22;9146;48.074;11.968;2024-02-26T15:13:36;10.90;99.90
18043;DHT22;9146;48.074;11.968;2024-02-26T15:16:03;10.90;99.90
18043;DHT22;9146;48.074;11.968;2024-02-26T15:18:30;10.80;99.90
18043;DHT22;9146;48.074;11.968;2024-02-26T15:23:27;10.70;99.90
18043;DHT22;9146;48.074;11.968;2024-02-26T15:25:54;10.70;99.90
18043;DHT22;9146;48.074;11.968;2024-02-26T15:28:21;10.70;99.90
18043;DHT22;9146;48.074;11.968;2024-02-26T15:30:48;10.60;99.90
18043;DHT22;9146;48.074;11.968;2024-02-26T15:33:15;10.50;99.90
18043;DHT22;9146;48.074;11.968;2024-02-26T15:35:43;10.50;99.90
18043;DHT22;9146;48.074;11.968;2024-02-26T15:38:10;10.50;99.90
18043;DHT22;9146;48.074;11.968;2024-02-26T15:40:40;10.40;99.90
18043;DHT22;9146;48.074;11.968;2024-02-26T15:45:34;10.30;99.90
18043;DHT22;9146;48.074;11.968;2024-02-26T15:48:01;10.20;99.90
18043;DHT22;9146;48.074;11.968;2024-02-26T15:50:28;10.20;99.90